sensor_id;sensor_type;location;lat;lon;timestamp;pressure;altitude;pressure_sealevel;temperature;humidity
62152;BME280;48139;47.474;19.034;2023-11-22T04:44:48;100415.50;;;4.45;100.00
62152;BME280;48139;47.474;19.034;2023-11-22T04:47:51;100415.50;;;4.45;100.00
62152;BME280;48139;47.474;19.034;2023-11-22T04:50:54;100418.34;;;3.92;100.00
62152;BME280;48139;47.474;19.034;2023-11-22T04:53:57;100415.59;;;3.99;100.00
62152;BME280;48139;47.474;19.034;2023-11-22T04:57:00;100420.00;;;3.94;100.00
62152;BME280;48139;47.474;19.034;2023-11-22T05:00:03;100430.22;;;4.03;100.00
62152;BME280;48139;47.474;19.034;2023-11-22T05:03:09;100429.09;;;4.17;100.00
62152;BME280;48139;47.474;19.034;2023-11-22T05:06:12;100427.37;;;4.16;100.00
62152;BME280;48139;47.474;19.034;2023-11-22T05:09:15;100428.44;;;4.05;100.00
62152;BME280;48139;47.474;19.034;2023-11-22T05:12:20;100429.69;;;3.85;100.00
62152;BME280;48139;47.474;19.034;2023-11-22T05:15:23;100439.19;;;3.86;100.00
62152;BME280;48139;47.474;19.034;2023-11-22T05:18:26;100445.12;;;3.91;100.00
62152;BME280;48139;47.474;19.034;2023-11-22T05:21:28;100454.78;;;3.83;100.00
62152;BME280;48139;47.474;19.034;2023-11-22T05:24:31;100452.12;;;3.86;100.00
62152;BME280;48139;47.474;19.034;2023-11-22T05:27:34;100451.38;;;3.81;100.00
62152;BME280;48139;47.474;19.034;2023-11-22T05:30:37;100458.41;;;3.73;100.00
62152;BME280;48139;47.474;19.034;2023-11-22T05:33:40;100459.16;;;3.79;100.00
62152;BME280;48139;47.474;19.034;2023-11-22T05:36:43;100464.47;;;3.72;100.00
62152;BME280;48139;47.474;19.034;2023-11-22T05:39:46;100468.75;;;3.74;100.00
62152;BME280;48139;47.474;19.034;2023-11-22T05:42:49;100474.06;;;3.67;100.00
62152;BME280;48139;47.474;19.034;2023-11-22T05:45:55;100486.31;;;3.57;100.00
62152;BME280;48139;47.474;19.034;2023-11-22T05:48:58;100497.59;;;3.54;100.00
62152;BME280;48139;47.474;19.034;2023-11-22T05:52:03;100500.22;;;3.50;100.00
62152;BME280;48139;47.474;19.034;2023-11-22T05:55:07;100497.03;;;3.34;100.00
62152;BME280;48139;47.474;19.034;2023-11-22T05:58:11;100502.28;;;3.30;100.00
62152;BME280;48139;47.474;19.034;2023-11-22T06:01:14;100503.94;;;3.34;100.00
62152;BME280;48139;47.474;19.034;2023-11-22T06:04:18;100517.00;;;3.26;100.00
62152;BME280;48139;47.474;19.034;2023-11-22T06:07:21;100518.78;;;3.22;100.00
62152;BME280;48139;47.474;19.034;2023-11-22T06:10:25;100514.47;;;3.24;100.00
62152;BME280;48139;47.474;19.034;2023-11-22T06:13:29;100515.34;;;3.20;100.00
62152;BME280;48139;47.474;19.034;2023-11-22T06:16:32;100530.06;;;3.18;100.00
62152;BME280;48139;47.474;19.034;2023-11-22T06:19:35;100531.84;;;3.13;100.00
62152;BME280;48139;47.474;19.034;2023-11-22T06:22:38;100537.81;;;3.20;100.00
62152;BME280;48139;47.474;19.034;2023-11-22T06:25:43;100535.31;;;3.12;100.00
62152;BME280;48139;47.474;19.034;2023-11-22T06:28:47;100549.03;;;3.19;100.00
62152;BME280;48139;47.474;19.034;2023-11-22T06:31:51;100561.09;;;3.20;100.00
62152;BME280;48139;47.474;19.034;2023-11-22T06:34:54;100567.81;;;3.32;100.00
62152;BME280;48139;47.474;19.034;2023-11-22T06:37:57;100567.25;;;3.70;100.00
62152;BME280;48139;47.474;19.034;2023-11-22T06:41:00;100570.38;;;3.90;100.00
62152;BME280;48139;47.474;19.034;2023-11-22T06:44:03;100587.56;;;3.95;100.00
62152;BME280;48139;47.474;19.034;2023-11-22T06:47:06;100583.13;;;4.02;100.00
62152;BME280;48139;47.474;19.034;2023-11-22T06:50:10;100593.56;;;3.99;100.00
62152;BME280;48139;47.474;19.034;2023-11-22T06:53:14;100600.50;;;3.97;100.00
62152;BME280;48139;47.474;19.034;2023-11-22T06:56:17;100592.91;;;3.86;100.00
62152;BME280;48139;47.474;19.034;2023-11-22T06:59:20;100594.69;;;3.83;100.00
62152;BME280;48139;47.474;19.034;2023-11-22T07:02:23;100602.47;;;3.81;100.00
62152;BME280;48139;47.474;19.034;2023-11-22T07:05:27;100599.84;;;3.84;100.00
62152;BME280;48139;47.474;19.034;2023-11-22T07:08:32;100617.03;;;3.90;100.00
62152;BME280;48139;47.474;19.034;2023-11-22T07:11:36;100616.94;;;3.94;100.00
62152;BME280;48139;47.474;19.034;2023-11-22T07:14:39;100628.13;;;3.99;100.00
62152;BME280;48139;47.474;19.034;2023-11-22T07:17:42;100631.44;;;4.07;100.00
62152;BME280;48139;47.474;19.034;2023-11-22T07:20:45;100634.00;;;4.09;100.00
62152;BME280;48139;47.474;19.034;2023-11-22T07:23:51;100634.78;;;4.14;100.00
62152;BME280;48139;47.474;19.034;2023-11-22T07:26:57;100635.53;;;4.21;100.00
62152;BME280;48139;47.474;19.034;2023-11-22T07:30:00;100638.91;;;4.26;100.00
62152;BME280;48139;47.474;19.034;2023-11-22T07:33:03;100639.66;;;4.32;100.00
62152;BME280;48139;47.474;19.034;2023-11-22T07:36:08;100644.78;;;4.37;100.00
62152;BME280;48139;47.474;19.034;2023-11-22T07:39:11;100635.06;;;4.48;100.00
62152;BME280;48139;47.474;19.034;2023-11-22T07:42:14;100630.53;;;4.61;100.00
62152;BME280;48139;47.474;19.034;2023-11-22T07:45:17;100628.56;;;4.72;100.00
62152;BME280;48139;47.474;19.034;2023-11-22T07:48:20;100636.25;;;4.76;100.00
62152;BME280;48139;47.474;19.034;2023-11-22T07:51:23;100644.78;;;4.83;100.00
62152;BME280;48139;47.474;19.034;2023-11-22T07:54:26;100647.16;;;4.95;100.00
62152;BME280;48139;47.474;19.034;2023-11-22T07:57:29;100648.56;;;5.11;100.00
62152;BME280;48139;47.474;19.034;2023-11-22T08:00:33;100651.66;;;5.30;100.00
62152;BME280;48139;47.474;19.034;2023-11-22T08:03:40;100649.66;;;5.41;100.00
62152;BME280;48139;47.474;19.034;2023-11-22T08:06:49;100654.03;;;5.39;100.00
62152;BME280;48139;47.474;19.034;2023-11-22T08:09:52;100662.50;;;5.49;100.00
62152;BME280;48139;47.474;19.034;2023-11-22T08:12:54;100670.94;;;5.58;100.00
62152;BME280;48139;47.474;19.034;2023-11-22T08:15:57;100673.16;;;5.75;100.00
62152;BME280;48139;47.474;19.034;2023-11-22T08:19:00;100676.81;;;6.06;100.00
62152;BME280;48139;47.474;19.034;2023-11-22T08:22:02;100676.47;;;6.56;100.00
62152;BME280;48139;47.474;19.034;2023-11-22T08:25:08;100688.06;;;6.76;100.00
62152;BME280;48139;47.474;19.034;2023-11-22T08:28:11;100692.38;;;6.77;100.00
62152;BME280;48139;47.474;19.034;2023-11-22T08:31:14;100701.81;;;6.81;100.00
62152;BME280;48139;47.474;19.034;2023-11-22T08:34:19;100699.44;;;6.74;100.00
62152;BME280;48139;47.474;19.034;2023-11-22T08:37:22;100698.66;;;6.69;100.00
62152;BME280;48139;47.474;19.034;2023-11-22T08:40:25;100702.28;;;6.63;100.00
62152;BME280;48139;47.474;19.034;2023-11-22T08:43:28;100698.03;;;6.61;100.00
62152;BME280;48139;47.474;19.034;2023-11-22T08:46:31;100692.38;;;6.77;100.00
62152;BME280;48139;47.474;19.034;2023-11-22T08:49:35;100694.22;;;6.74;100.00
62152;BME280;48139;47.474;19.034;2023-11-22T08:52:38;100698.22;;;6.87;100.00
62152;BME280;48139;47.474;19.034;2023-11-22T08:55:41;100701.31;;;7.00;100.00
62152;BME280;48139;47.474;19.034;2023-11-22T08:58:45;100708.75;;;7.13;100.00
62152;BME280;48139;47.474;19.034;2023-11-22T09:01:48;100704.97;;;7.25;100.00
62152;BME280;48139;47.474;19.034;2023-11-22T09:04:51;100698.44;;;7.41;100.00
62152;BME280;48139;47.474;19.034;2023-11-22T09:07:53;100698.31;;;7.46;100.00
62152;BME280;48139;47.474;19.034;2023-11-22T09:10:59;100696.59;;;7.45;100.00
62152;BME280;48139;47.474;19.034;2023-11-22T09:14:01;100696.22;;;7.57;100.00
62152;BME280;48139;47.474;19.034;2023-11-22T09:17:08;100691.69;;;7.63;100.00
62152;BME280;48139;47.474;19.034;2023-11-22T09:20:13;100703.28;;;7.83;100.00
62152;BME280;48139;47.474;19.034;2023-11-22T09:23:16;100700.88;;;8.04;100.00
62152;BME280;48139;47.474;19.034;2023-11-22T09:26:19;100705.78;;;8.14;100.00
62152;BME280;48139;47.474;19.034;2023-11-22T09:29:22;100716.00;;;8.21;100.00
62152;BME280;48139;47.474;19.034;2023-11-22T09:32:27;100716.75;;;8.25;100.00
62152;BME280;48139;47.474;19.034;2023-11-22T09:35:35;100720.69;;;8.38;100.00
62152;BME280;48139;47.474;19.034;2023-11-22T09:38:38;100721.34;;;8.44;100.00
62152;BME280;48139;47.474;19.034;2023-11-22T09:41:41;100725.44;;;8.53;100.00
62152;BME280;48139;47.474;19.034;2023-11-22T09:44:44;100726.53;;;8.72;100.00
62152;BME280;48139;47.474;19.034;2023-11-22T09:47:47;100733.34;;;8.76;100.00
62152;BME280;48139;47.474;19.034;2023-11-22T09:54:18;100734.69;;;8.88;100.00
62152;BME280;48139;47.474;19.034;2023-11-22T09:57:24;100742.41;;;8.93;100.00
62152;BME280;48139;47.474;19.034;2023-11-22T10:00:28;100733.78;;;9.14;100.00
62152;BME280;48139;47.474;19.034;2023-11-22T10:03:37;100730.78;;;9.24;100.00
62152;BME280;48139;47.474;19.034;2023-11-22T10:06:40;100733.81;;;9.37;100.00
62152;BME280;48139;47.474;19.034;2023-11-22T10:09:48;100734.41;;;9.45;100.00
62152;BME280;48139;47.474;19.034;2023-11-22T10:12:53;100734.69;;;9.38;100.00
62152;BME280;48139;47.474;19.034;2023-11-22T10:16:12;100737.19;;;9.41;100.00
62152;BME280;48139;47.474;19.034;2023-11-22T10:19:17;100743.66;;;9.55;100.00
62152;BME280;48139;47.474;19.034;2023-11-22T10:22:21;100741.44;;;9.68;100.00
62152;BME280;48139;47.474;19.034;2023-11-22T10:25:23;100745.44;;;9.77;100.00
62152;BME280;48139;47.474;19.034;2023-11-22T10:28:27;100754.28;;;9.74;100.00
62152;BME280;48139;47.474;19.034;2023-11-22T10:31:30;100762.34;;;9.68;100.00
62152;BME280;48139;47.474;19.034;2023-11-22T10:34:36;100760.97;;;9.81;100.00
62152;BME280;48139;47.474;19.034;2023-11-22T10:37:41;100766.28;;;9.80;100.00
62152;BME280;48139;47.474;19.034;2023-11-22T10:40:45;100774.84;;;9.83;100.00
62152;BME280;48139;47.474;19.034;2023-11-22T10:43:48;100783.06;;;9.74;100.00
62152;BME280;48139;47.474;19.034;2023-11-22T10:46:53;100789.87;;;9.78;100.00
62152;BME280;48139;47.474;19.034;2023-11-22T10:49:56;100793.00;;;9.88;100.00
62152;BME280;48139;47.474;19.034;2023-11-22T10:53:01;100793.78;;;10.13;100.00
62152;BME280;48139;47.474;19.034;2023-11-22T10:56:12;100799.31;;;10.29;100.00
62152;BME280;48139;47.474;19.034;2023-11-22T10:59:19;100791.28;;;10.33;100.00
62152;BME280;48139;47.474;19.034;2023-11-22T11:02:27;100793.66;;;10.18;100.00
62152;BME280;48139;47.474;19.034;2023-11-22T11:05:33;100795.31;;;10.19;100.00
62152;BME280;48139;47.474;19.034;2023-11-22T11:08:37;100807.22;;;10.04;100.00
62152;BME280;48139;47.474;19.034;2023-11-22T11:11:41;100824.38;;;9.88;100.00
62152;BME280;48139;47.474;19.034;2023-11-22T11:14:45;100839.44;;;9.58;100.00
62152;BME280;48139;47.474;19.034;2023-11-22T11:17:49;100827.09;;;9.86;100.00
62152;BME280;48139;47.474;19.034;2023-11-22T11:20:56;100828.22;;;9.79;100.00
62152;BME280;48139;47.474;19.034;2023-11-22T11:23:59;100832.12;;;9.67;100.00
62152;BME280;48139;47.474;19.034;2023-11-22T11:27:10;100836.72;;;9.61;100.00
62152;BME280;48139;47.474;19.034;2023-11-22T11:30:48;100833.28;;;9.84;100.00
62152;BME280;48139;47.474;19.034;2023-11-22T11:33:54;100841.63;;;9.93;100.00
62152;BME280;48139;47.474;19.034;2023-11-22T11:37:00;100833.87;;;10.13;100.00
62152;BME280;48139;47.474;19.034;2023-11-22T11:40:26;100834.59;;;10.19;100.00
62152;BME280;48139;47.474;19.034;2023-11-22T11:43:43;100840.75;;;10.41;100.00
62152;BME280;48139;47.474;19.034;2023-11-22T11:46:46;100839.59;;;10.25;100.00
62152;BME280;48139;47.474;19.034;2023-11-22T11:49:49;100846.44;;;10.05;100.00
62152;BME280;48139;47.474;19.034;2023-11-22T11:52:55;100843.22;;;10.22;100.00
62152;BME280;48139;47.474;19.034;2023-11-22T11:55:58;100839.69;;;10.23;100.00
62152;BME280;48139;47.474;19.034;2023-11-22T11:59:01;100838.03;;;10.21;100.00
62152;BME280;48139;47.474;19.034;2023-11-22T12:02:04;100837.13;;;10.22;100.00
62152;BME280;48139;47.474;19.034;2023-11-22T12:05:09;100849.06;;;10.29;100.00
62152;BME280;48139;47.474;19.034;2023-11-22T12:08:13;100848.06;;;10.31;100.00
62152;BME280;48139;47.474;19.034;2023-11-22T12:11:18;100850.37;;;10.17;100.00
62152;BME280;48139;47.474;19.034;2023-11-22T12:14:24;100849.78;;;10.09;100.00
62152;BME280;48139;47.474;19.034;2023-11-22T12:17:29;100848.03;;;10.09;100.00
62152;BME280;48139;47.474;19.034;2023-11-22T12:20:32;100851.41;;;9.88;100.00
62152;BME280;48139;47.474;19.034;2023-11-22T12:23:35;100859.22;;;9.90;100.00
62152;BME280;48139;47.474;19.034;2023-11-22T12:26:40;100853.72;;;9.97;100.00
62152;BME280;48139;47.474;19.034;2023-11-22T12:29:46;100860.56;;;10.00;100.00
62152;BME280;48139;47.474;19.034;2023-11-22T12:32:49;100879.19;;;9.92;100.00
62152;BME280;48139;47.474;19.034;2023-11-22T12:35:53;100878.84;;;10.01;100.00
62152;BME280;48139;47.474;19.034;2023-11-22T12:38:57;100878.16;;;9.96;100.00
62152;BME280;48139;47.474;19.034;2023-11-22T12:42:02;100873.03;;;9.93;100.00
62152;BME280;48139;47.474;19.034;2023-11-22T12:45:20;100889.88;;;9.86;100.00
62152;BME280;48139;47.474;19.034;2023-11-22T12:48:24;100904.31;;;9.73;100.00
62152;BME280;48139;47.474;19.034;2023-11-22T12:51:28;100914.75;;;9.73;100.00
62152;BME280;48139;47.474;19.034;2023-11-22T12:54:31;100909.75;;;9.67;100.00
62152;BME280;48139;47.474;19.034;2023-11-22T12:57:35;100910.00;;;9.59;100.00
62152;BME280;48139;47.474;19.034;2023-11-22T13:00:38;100918.25;;;9.47;100.00
62152;BME280;48139;47.474;19.034;2023-11-22T13:03:41;100912.38;;;9.41;100.00
62152;BME280;48139;47.474;19.034;2023-11-22T13:06:44;100918.69;;;9.35;100.00
62152;BME280;48139;47.474;19.034;2023-11-22T13:09:47;100927.25;;;9.65;100.00
62152;BME280;48139;47.474;19.034;2023-11-22T13:12:52;100924.59;;;9.66;100.00
62152;BME280;48139;47.474;19.034;2023-11-22T13:15:55;100932.16;;;9.49;100.00
62152;BME280;48139;47.474;19.034;2023-11-22T13:18:59;100936.78;;;9.41;100.00
62152;BME280;48139;47.474;19.034;2023-11-22T13:22:02;100934.19;;;9.40;100.00
62152;BME280;48139;47.474;19.034;2023-11-22T13:25:05;100932.69;;;9.32;100.00
62152;BME280;48139;47.474;19.034;2023-11-22T13:28:08;100931.03;;;9.04;100.00
62152;BME280;48139;47.474;19.034;2023-11-22T13:31:12;100926.97;;;8.94;100.00
62152;BME280;48139;47.474;19.034;2023-11-22T13:34:15;100924.66;;;8.84;100.00
62152;BME280;48139;47.474;19.034;2023-11-22T13:37:22;100917.63;;;8.86;100.00
62152;BME280;48139;47.474;19.034;2023-11-22T13:40:25;100918.56;;;8.84;100.00
62152;BME280;48139;47.474;19.034;2023-11-22T13:43:31;100907.50;;;8.76;100.00
62152;BME280;48139;47.474;19.034;2023-11-22T13:46:35;100924.75;;;8.81;100.00
62152;BME280;48139;47.474;19.034;2023-11-22T13:49:38;100932.91;;;8.71;100.00
62152;BME280;48139;47.474;19.034;2023-11-22T13:52:41;100938.44;;;8.62;100.00
62152;BME280;48139;47.474;19.034;2023-11-22T13:55:44;100943.47;;;8.68;100.00
62152;BME280;48139;47.474;19.034;2023-11-22T13:58:47;100940.22;;;8.60;100.00
62152;BME280;48139;47.474;19.034;2023-11-22T14:01:49;100953.41;;;8.55;100.00
62152;BME280;48139;47.474;19.034;2023-11-22T14:04:55;100959.63;;;8.49;100.00
62152;BME280;48139;47.474;19.034;2023-11-22T14:07:58;100963.22;;;8.47;100.00
62152;BME280;48139;47.474;19.034;2023-11-22T14:11:01;100959.94;;;8.40;100.00
62152;BME280;48139;47.474;19.034;2023-11-22T14:14:03;100962.81;;;8.30;100.00
62152;BME280;48139;47.474;19.034;2023-11-22T14:17:06;100949.97;;;8.22;100.00
62152;BME280;48139;47.474;19.034;2023-11-22T14:20:12;100944.81;;;8.19;100.00
62152;BME280;48139;47.474;19.034;2023-11-22T14:23:19;100949.44;;;8.09;100.00
62152;BME280;48139;47.474;19.034;2023-11-22T14:26:22;100955.34;;;8.16;100.00
62152;BME280;48139;47.474;19.034;2023-11-22T14:29:26;100963.53;;;8.04;100.00
62152;BME280;48139;47.474;19.034;2023-11-22T14:32:29;100965.47;;;7.96;100.00
62152;BME280;48139;47.474;19.034;2023-11-22T14:35:33;100975.91;;;7.96;100.00
62152;BME280;48139;47.474;19.034;2023-11-22T14:38:37;100976.53;;;7.73;100.00
62152;BME280;48139;47.474;19.034;2023-11-22T14:41:43;100997.62;;;7.62;100.00
62152;BME280;48139;47.474;19.034;2023-11-22T14:44:46;100998.69;;;7.55;100.00
62152;BME280;48139;47.474;19.034;2023-11-22T14:47:49;101003.84;;;7.57;100.00
62152;BME280;48139;47.474;19.034;2023-11-22T14:50:54;101017.88;;;7.51;100.00
62152;BME280;48139;47.474;19.034;2023-11-22T14:53:57;101007.63;;;7.44;100.00
62152;BME280;48139;47.474;19.034;2023-11-22T14:57:00;101009.41;;;7.43;100.00
62152;BME280;48139;47.474;19.034;2023-11-22T15:00:05;101016.47;;;7.38;100.00
62152;BME280;48139;47.474;19.034;2023-11-22T15:03:16;101013.13;;;7.32;100.00
62152;BME280;48139;47.474;19.034;2023-11-22T15:06:22;101004.66;;;7.23;100.00
62152;BME280;48139;47.474;19.034;2023-11-22T15:09:25;101021.47;;;7.10;100.00
62152;BME280;48139;47.474;19.034;2023-11-22T15:12:29;101019.59;;;7.15;100.00
62152;BME280;48139;47.474;19.034;2023-11-22T15:15:32;101027.44;;;7.14;100.00
62152;BME280;48139;47.474;19.034;2023-11-22T15:18:35;101032.78;;;7.08;100.00
62152;BME280;48139;47.474;19.034;2023-11-22T15:21:38;101022.53;;;7.00;100.00
62152;BME280;48139;47.474;19.034;2023-11-22T15:24:41;101027.88;;;6.94;100.00
62152;BME280;48139;47.474;19.034;2023-11-22T15:27:45;101025.34;;;6.91;100.00
62152;BME280;48139;47.474;19.034;2023-11-22T15:30:50;101045.31;;;6.92;100.00
62152;BME280;48139;47.474;19.034;2023-11-22T15:34:01;101051.50;;;6.86;100.00
62152;BME280;48139;47.474;19.034;2023-11-22T15:37:05;101036.84;;;6.81;100.00
62152;BME280;48139;47.474;19.034;2023-11-22T15:40:07;101047.56;;;6.67;100.00
62152;BME280;48139;47.474;19.034;2023-11-22T15:43:13;101067.56;;;6.64;100.00
62152;BME280;48139;47.474;19.034;2023-11-22T15:46:16;101067.66;;;6.61;100.00
62152;BME280;48139;47.474;19.034;2023-11-22T15:49:21;101071.28;;;6.51;100.00
62152;BME280;48139;47.474;19.034;2023-11-22T15:52:23;101073.75;;;6.58;100.00
62152;BME280;48139;47.474;19.034;2023-11-22T15:55:27;101080.78;;;6.55;100.00
62152;BME280;48139;47.474;19.034;2023-11-22T15:58:30;101086.09;;;6.48;100.00
62152;BME280;48139;47.474;19.034;2023-11-22T16:01:33;101102.75;;;6.38;100.00
62152;BME280;48139;47.474;19.034;2023-11-22T16:04:36;101115.00;;;6.33;100.00
62152;BME280;48139;47.474;19.034;2023-11-22T16:07:39;101120.19;;;6.35;100.00
62152;BME280;48139;47.474;19.034;2023-11-22T16:10:42;101119.28;;;6.36;100.00
62152;BME280;48139;47.474;19.034;2023-11-22T16:13:46;101127.03;;;6.39;100.00
62152;BME280;48139;47.474;19.034;2023-11-22T16:16:50;101136.69;;;6.32;100.00
62152;BME280;48139;47.474;19.034;2023-11-22T16:19:53;101139.22;;;6.37;100.00
62152;BME280;48139;47.474;19.034;2023-11-22T16:22:57;101139.06;;;6.46;100.00
62152;BME280;48139;47.474;19.034;2023-11-22T16:26:02;101145.25;;;6.39;100.00
62152;BME280;48139;47.474;19.034;2023-11-22T16:29:07;101149.69;;;6.34;100.00
62152;BME280;48139;47.474;19.034;2023-11-22T16:32:09;101154.97;;;6.28;100.00
62152;BME280;48139;47.474;19.034;2023-11-22T16:35:13;101168.97;;;6.21;100.00
62152;BME280;48139;47.474;19.034;2023-11-22T16:38:19;101171.69;;;6.13;100.00
62152;BME280;48139;47.474;19.034;2023-11-22T16:41:21;101169.37;;;5.96;100.00
62152;BME280;48139;47.474;19.034;2023-11-22T16:44:27;101179.81;;;5.93;100.00
62152;BME280;48139;47.474;19.034;2023-11-22T16:47:31;101180.75;;;5.86;100.00
62152;BME280;48139;47.474;19.034;2023-11-22T16:50:35;101185.09;;;5.86;100.00
62152;BME280;48139;47.474;19.034;2023-11-22T16:53:38;101192.00;;;5.90;100.00
62152;BME280;48139;47.474;19.034;2023-11-22T16:56:42;101190.25;;;5.92;100.00
62152;BME280;48139;47.474;19.034;2023-11-22T16:59:45;101193.69;;;5.92;100.00
